Time;durP1;ratioP1;P1;durP2;ratioP2;P2;SDS_P1;SDS_P2;PMS_P1;PMS_P2;Temp;Humidity;BMP_temperature;BMP_pressure;BME280_temperature;BME280_humidity;BME280_pressure;Samples;Min_cycle;Max_cycle;Signal;HPM_P1;HPM_P2
2023/12/09 00:00:55;;;;;;;42.10;27.30;;;;;;;;;;4996799;28;20650;-66
2023/12/09 00:03:23;;;;;;;40.63;27.33;;;;;;;;;;4999232;28;20243;-68
2023/12/09 00:05:51;;;;;;;45.03;28.25;;;;;;;;;;4991404;28;20214;-66
2023/12/09 00:08:21;;;;;;;47.05;29.77;;;;;;;;;;4991391;28;20217;-66
2023/12/09 00:10:49;;;;;;;46.30;27.13;;;;;;;;;;4992674;28;20219;-66
2023/12/09 00:13:17;;;;;;;41.63;27.98;;;;;;;;;;4990385;28;20209;-66
2023/12/09 00:15:46;;;;;;;41.90;26.40;;;;;;;;;;5002187;28;20281;-68
2023/12/09 00:18:14;;;;;;;42.63;26.60;;;;;;;;;;5019730;28;20660;-67
2023/12/09 00:20:42;;;;;;;49.70;25.42;;;;;;;;;;5027847;28;20237;-68
2023/12/09 00:23:11;;;;;;;49.58;29.67;;;;;;;;;;5007106;28;20281;-67
2023/12/09 00:25:40;;;;;;;45.13;28.08;;;;;;;;;;4997430;28;20281;-67
2023/12/09 00:28:08;;;;;;;54.20;28.80;;;;;;;;;;5007995;28;20286;-65
2023/12/09 00:30:37;;;;;;;41.80;27.05;;;;;;;;;;4975315;28;20220;-66
2023/12/09 00:33:05;;;;;;;36.10;25.45;;;;;;;;;;4998389;28;20198;-66
2023/12/09 00:35:33;;;;;;;37.67;24.80;;;;;;;;;;5011910;28;20212;-65
2023/12/09 00:38:01;;;;;;;42.30;25.95;;;;;;;;;;5010941;28;20210;-65
2023/12/09 00:40:30;;;;;;;38.30;26.52;;;;;;;;;;5011003;28;20594;-65
2023/12/09 00:42:59;;;;;;;43.67;25.48;;;;;;;;;;5009667;28;20195;-66
2023/12/09 00:45:26;;;;;;;43.65;26.90;;;;;;;;;;4989711;28;20597;-65
2023/12/09 00:47:55;;;;;;;39.78;28.13;;;;;;;;;;4991696;28;20211;-66
2023/12/09 00:50:23;;;;;;;42.85;27.67;;;;;;;;;;4992307;28;20220;-65
2023/12/09 00:52:51;;;;;;;44.65;27.17;;;;;;;;;;5010746;28;20597;-66
2023/12/09 00:55:19;;;;;;;49.33;26.60;;;;;;;;;;5009921;28;20212;-65
2023/12/09 00:57:47;;;;;;;43.30;27.42;;;;;;;;;;5011324;28;20212;-65
2023/12/09 01:00:18;;;;;;;45.67;31.10;;;;;;;;;;5005910;28;20206;-66
2023/12/09 01:02:46;;;;;;;49.47;28.42;;;;;;;;;;4999800;28;20249;-65
2023/12/09 01:05:14;;;;;;;44.90;29.38;;;;;;;;;;4983158;28;20263;-66
2023/12/09 01:07:43;;;;;;;43.90;28.50;;;;;;;;;;4992812;28;20207;-66
2023/12/09 01:10:11;;;;;;;42.63;28.27;;;;;;;;;;4991844;28;20217;-66
2023/12/09 01:12:39;;;;;;;46.58;30.63;;;;;;;;;;4992589;28;20685;-65
2023/12/09 01:15:08;;;;;;;49.92;30.15;;;;;;;;;;4993795;28;20244;-65
2023/12/09 01:17:37;;;;;;;43.97;29.70;;;;;;;;;;5007777;28;20202;-65
2023/12/09 01:20:07;;;;;;;50.65;29.48;;;;;;;;;;5010540;28;20665;-65
2023/12/09 01:22:36;;;;;;;44.42;28.88;;;;;;;;;;5010660;28;20518;-65
2023/12/09 01:25:05;;;;;;;51.97;29.25;;;;;;;;;;4991250;28;20205;-63
2023/12/09 01:27:33;;;;;;;45.83;29.08;;;;;;;;;;5003100;28;20210;-65
2023/12/09 01:30:01;;;;;;;41.88;28.27;;;;;;;;;;5010327;28;20222;-66
2023/12/09 01:32:29;;;;;;;41.10;29.13;;;;;;;;;;5011172;28;20228;-65
2023/12/09 01:34:59;;;;;;;43.53;31.00;;;;;;;;;;5009890;28;20691;-65
2023/12/09 01:37:27;;;;;;;47.55;29.92;;;;;;;;;;5005613;28;20213;-66
2023/12/09 01:39:55;;;;;;;43.03;29.55;;;;;;;;;;4990657;28;20198;-66
2023/12/09 01:42:23;;;;;;;38.47;28.30;;;;;;;;;;4991563;28;20697;-65
2023/12/09 01:44:52;;;;;;;44.42;28.98;;;;;;;;;;4978248;28;20690;-66
2023/12/09 01:47:20;;;;;;;49.50;30.35;;;;;;;;;;4989373;28;20209;-66
2023/12/09 01:49:48;;;;;;;39.83;27.40;;;;;;;;;;4990498;28;20576;-66
2023/12/09 01:52:19;;;;;;;38.15;26.50;;;;;;;;;;4987528;28;20231;-65
2023/12/09 01:54:47;;;;;;;40.47;28.92;;;;;;;;;;4970480;28;20252;-65
2023/12/09 01:57:15;;;;;;;43.55;29.38;;;;;;;;;;4975270;28;20211;-66
2023/12/09 01:59:43;;;;;;;41.95;28.30;;;;;;;;;;5007627;28;20212;-66
2023/12/09 02:02:12;;;;;;;40.60;27.38;;;;;;;;;;5009226;28;20302;-66
2023/12/09 02:04:41;;;;;;;35.45;25.75;;;;;;;;;;5010177;28;20214;-66
2023/12/09 02:07:09;;;;;;;41.70;25.58;;;;;;;;;;5009239;28;20228;-65
2023/12/09 02:09:40;;;;;;;38.35;24.83;;;;;;;;;;5005762;28;20212;-65
2023/12/09 02:12:14;;;;;;;37.55;26.20;;;;;;;;;;5009480;28;20293;-65
2023/12/09 02:14:48;;;;;;;42.30;28.20;;;;;;;;;;5010502;28;20196;-66
2023/12/09 02:17:21;;;;;;;48.90;27.85;;;;;;;;;;5008855;28;20196;-65
2023/12/09 02:19:49;;;;;;;45.03;28.83;;;;;;;;;;5001564;28;20193;-66
2023/12/09 02:22:17;;;;;;;47.20;30.23;;;;;;;;;;4991414;28;20216;-66
2023/12/09 02:24:47;;;;;;;39.55;27.38;;;;;;;;;;4989285;28;20566;-66
2023/12/09 02:27:16;;;;;;;38.85;27.50;;;;;;;;;;5007237;28;20206;-65
2023/12/09 02:29:50;;;;;;;40.58;25.73;;;;;;;;;;5004083;28;20618;-66
2023/12/09 02:32:21;;;;;;;36.30;25.50;;;;;;;;;;4991617;28;20214;-65
2023/12/09 02:34:50;;;;;;;41.53;29.27;;;;;;;;;;4991423;28;20197;-67
2023/12/09 02:37:20;;;;;;;46.13;31.40;;;;;;;;;;4991360;28;20570;-66
2023/12/09 02:39:50;;;;;;;42.80;29.63;;;;;;;;;;4992239;28;20570;-66
2023/12/09 02:42:18;;;;;;;49.50;29.38;;;;;;;;;;4995915;28;20202;-66
2023/12/09 02:44:46;;;;;;;44.60;28.30;;;;;;;;;;4994088;28;20234;-66
2023/12/09 02:47:15;;;;;;;43.97;29.20;;;;;;;;;;4994591;28;20300;-66
2023/12/09 02:49:43;;;;;;;42.92;28.23;;;;;;;;;;5006755;28;20285;-66
2023/12/09 02:52:11;;;;;;;38.50;28.73;;;;;;;;;;5002898;28;20226;-66
2023/12/09 02:54:40;;;;;;;39.45;30.15;;;;;;;;;;4995036;28;20786;-66
2023/12/09 02:57:09;;;;;;;39.40;27.92;;;;;;;;;;4994122;28;20209;-66
2023/12/09 02:59:37;;;;;;;44.58;28.38;;;;;;;;;;4994745;28;20665;-66
2023/12/09 03:02:05;;;;;;;36.63;26.67;;;;;;;;;;4994126;28;20206;-66
2023/12/09 03:04:34;;;;;;;41.55;29.08;;;;;;;;;;4973651;28;20199;-66
2023/12/09 03:07:02;;;;;;;44.25;28.02;;;;;;;;;;4973475;28;20739;-66
2023/12/09 03:09:30;;;;;;;42.30;28.33;;;;;;;;;;4974063;28;20577;-66
2023/12/09 03:11:58;;;;;;;41.22;26.27;;;;;;;;;;5008038;28;20203;-66
2023/12/09 03:14:28;;;;;;;44.38;28.02;;;;;;;;;;4997020;28;20203;-66
2023/12/09 03:16:57;;;;;;;39.47;26.77;;;;;;;;;;4993579;28;20195;-66
2023/12/09 03:19:25;;;;;;;36.97;26.25;;;;;;;;;;5000621;28;20569;-66
2023/12/09 03:21:53;;;;;;;34.33;25.92;;;;;;;;;;5015618;28;20602;-65
2023/12/09 03:24:21;;;;;;;40.72;26.85;;;;;;;;;;4995641;28;20207;-66
2023/12/09 03:26:50;;;;;;;36.95;25.52;;;;;;;;;;4999448;28;20641;-67
2023/12/09 03:29:19;;;;;;;32.28;25.13;;;;;;;;;;4999780;28;20199;-66
2023/12/09 03:31:48;;;;;;;38.08;26.52;;;;;;;;;;5005732;28;20579;-66
2023/12/09 03:34:17;;;;;;;36.92;25.77;;;;;;;;;;4999706;28;20223;-66
2023/12/09 03:36:45;;;;;;;40.75;26.73;;;;;;;;;;4997027;28;20208;-66
2023/12/09 03:39:13;;;;;;;40.13;27.35;;;;;;;;;;5008377;28;20657;-66
2023/12/09 03:41:41;;;;;;;37.70;28.35;;;;;;;;;;5011806;28;20773;-66
2023/12/09 03:44:09;;;;;;;38.78;27.70;;;;;;;;;;5012512;28;20224;-66
2023/12/09 03:46:39;;;;;;;35.53;24.92;;;;;;;;;;5011735;28;20198;-66
2023/12/09 03:49:08;;;;;;;35.80;26.40;;;;;;;;;;5001964;28;20569;-66
2023/12/09 03:51:36;;;;;;;35.45;24.95;;;;;;;;;;5002172;28;20718;-66
2023/12/09 03:54:05;;;;;;;36.65;25.15;;;;;;;;;;4972016;28;20224;-66
2023/12/09 03:56:33;;;;;;;33.70;24.75;;;;;;;;;;4972279;28;20211;-66
2023/12/09 03:59:01;;;;;;;36.15;25.17;;;;;;;;;;4992771;28;20248;-66
2023/12/09 04:01:29;;;;;;;37.40;24.60;;;;;;;;;;4993450;28;20198;-66
2023/12/09 04:03:57;;;;;;;38.47;24.23;;;;;;;;;;4995234;28;20205;-66
2023/12/09 04:06:27;;;;;;;35.60;24.70;;;;;;;;;;4991838;28;20214;-66
2023/12/09 04:08:55;;;;;;;36.95;24.65;;;;;;;;;;4992005;28;20210;-66
2023/12/09 04:11:24;;;;;;;37.22;26.58;;;;;;;;;;4992442;28;20203;-66
2023/12/09 04:13:52;;;;;;;47.50;26.50;;;;;;;;;;5010016;28;20232;-66
2023/12/09 04:16:20;;;;;;;46.08;26.35;;;;;;;;;;5006721;28;20202;-66
2023/12/09 04:18:48;;;;;;;46.38;27.48;;;;;;;;;;5003695;28;20214;-65
2023/12/09 04:21:17;;;;;;;44.92;28.25;;;;;;;;;;5004014;28;20668;-66
2023/12/09 04:23:47;;;;;;;48.63;28.80;;;;;;;;;;4993413;28;20203;-66
2023/12/09 04:26:15;;;;;;;45.10;29.10;;;;;;;;;;4992057;28;20206;-66
2023/12/09 04:28:44;;;;;;;49.25;29.02;;;;;;;;;;4991473;28;20206;-66
2023/12/09 04:31:12;;;;;;;51.70;29.55;;;;;;;;;;4990932;28;20678;-66
2023/12/09 04:33:40;;;;;;;49.50;29.95;;;;;;;;;;5007477;28;20584;-66
2023/12/09 04:36:09;;;;;;;58.47;31.02;;;;;;;;;;5011751;28;20215;-66
2023/12/09 04:38:37;;;;;;;48.78;30.00;;;;;;;;;;5011403;28;20213;-65
2023/12/09 04:41:07;;;;;;;53.90;29.85;;;;;;;;;;5011026;28;20242;-66
2023/12/09 04:43:35;;;;;;;56.40;31.63;;;;;;;;;;4996535;28;20223;-65
2023/12/09 04:46:03;;;;;;;50.47;30.85;;;;;;;;;;4991209;28;20203;-65
2023/12/09 04:48:31;;;;;;;54.95;29.65;;;;;;;;;;4991784;28;20323;-66
2023/12/09 04:50:59;;;;;;;63.38;31.10;;;;;;;;;;4991864;28;20206;-65
2023/12/09 04:53:28;;;;;;;53.13;30.40;;;;;;;;;;5005017;28;20589;-65
2023/12/09 04:55:56;;;;;;;51.35;29.67;;;;;;;;;;5010760;28;20209;-66
2023/12/09 04:58:25;;;;;;;44.85;28.35;;;;;;;;;;5011110;28;20205;-65
2023/12/09 05:00:54;;;;;;;54.33;32.38;;;;;;;;;;5010653;28;20212;-66
2023/12/09 05:03:22;;;;;;;51.22;28.00;;;;;;;;;;4998105;28;20203;-66
2023/12/09 05:05:50;;;;;;;48.45;28.35;;;;;;;;;;4990100;28;20638;-66
2023/12/09 05:08:18;;;;;;;49.25;30.48;;;;;;;;;;4991570;28;20296;-66
2023/12/09 05:10:46;;;;;;;47.10;27.48;;;;;;;;;;4991014;28;20210;-66
2023/12/09 05:13:15;;;;;;;50.88;29.02;;;;;;;;;;5002088;28;20222;-66
2023/12/09 05:15:44;;;;;;;47.25;26.40;;;;;;;;;;5010911;28;20232;-66
2023/12/09 05:18:13;;;;;;;49.08;27.17;;;;;;;;;;5010964;28;20202;-66
2023/12/09 05:20:41;;;;;;;42.35;25.42;;;;;;;;;;5010950;28;20206;-66
2023/12/09 05:23:09;;;;;;;47.35;26.08;;;;;;;;;;5010834;28;20201;-66
2023/12/09 05:25:37;;;;;;;48.95;27.70;;;;;;;;;;5009985;28;20581;-65
2023/12/09 05:28:06;;;;;;;38.45;23.02;;;;;;;;;;4993148;28;20278;-65
2023/12/09 05:30:34;;;;;;;58.38;25.98;;;;;;;;;;4989895;28;20714;-65
2023/12/09 05:33:04;;;;;;;39.28;23.55;;;;;;;;;;4998249;28;20219;-65
2023/12/09 05:35:32;;;;;;;39.03;22.65;;;;;;;;;;5010380;28;20209;-66
2023/12/09 05:38:02;;;;;;;39.58;24.40;;;;;;;;;;5010571;28;20210;-65
2023/12/09 05:40:30;;;;;;;37.85;23.92;;;;;;;;;;5008772;28;20234;-65
2023/12/09 05:42:58;;;;;;;39.35;23.73;;;;;;;;;;5010355;28;20559;-65
2023/12/09 05:45:26;;;;;;;42.83;24.85;;;;;;;;;;5010163;28;20218;-65
2023/12/09 05:47:54;;;;;;;39.65;24.85;;;;;;;;;;5010968;28;20232;-66
2023/12/09 05:50:24;;;;;;;37.50;23.48;;;;;;;;;;5009850;28;20682;-65
2023/12/09 05:52:52;;;;;;;41.55;23.45;;;;;;;;;;5004496;28;20217;-65
2023/12/09 05:55:21;;;;;;;45.88;24.02;;;;;;;;;;4990153;28;20227;-65
2023/12/09 05:57:49;;;;;;;42.90;24.38;;;;;;;;;;4991406;28;20211;-65
2023/12/09 06:00:17;;;;;;;45.20;26.80;;;;;;;;;;4990248;28;20566;-66
2023/12/09 06:02:45;;;;;;;39.65;24.50;;;;;;;;;;4990648;28;20221;-65
2023/12/09 06:05:13;;;;;;;42.60;24.67;;;;;;;;;;4989634;28;20263;-66
2023/12/09 06:07:43;;;;;;;38.22;23.48;;;;;;;;;;4991240;28;20563;-65
2023/12/09 06:10:11;;;;;;;39.83;23.52;;;;;;;;;;4990837;28;20214;-66
2023/12/09 06:12:40;;;;;;;51.22;24.30;;;;;;;;;;4991419;28;20209;-65
2023/12/09 06:15:08;;;;;;;47.22;25.63;;;;;;;;;;5008783;28;20224;-65
2023/12/09 06:17:36;;;;;;;43.40;27.17;;;;;;;;;;5013249;28;20698;-66
2023/12/09 06:20:07;;;;;;;45.35;27.02;;;;;;;;;;5013606;28;20580;-65
2023/12/09 06:22:35;;;;;;;42.70;24.75;;;;;;;;;;5012498;28;20656;-66
2023/12/09 06:25:05;;;;;;;47.35;26.02;;;;;;;;;;4997807;28;20209;-65
2023/12/09 06:27:34;;;;;;;43.95;26.13;;;;;;;;;;5010846;28;20254;-66
2023/12/09 06:30:02;;;;;;;42.97;26.40;;;;;;;;;;5014170;28;20579;-65
2023/12/09 06:32:30;;;;;;;47.53;23.80;;;;;;;;;;5011531;28;20274;-66
2023/12/09 06:34:59;;;;;;;56.53;31.48;;;;;;;;;;4987164;28;20217;-65
2023/12/09 06:37:27;;;;;;;44.08;26.02;;;;;;;;;;5007937;28;20205;-65
2023/12/09 06:39:55;;;;;;;42.58;25.10;;;;;;;;;;5013390;28;20202;-66
2023/12/09 06:42:25;;;;;;;42.65;26.98;;;;;;;;;;5013687;28;20190;-65
2023/12/09 06:44:53;;;;;;;35.78;25.27;;;;;;;;;;4997345;28;20229;-65
2023/12/09 06:47:21;;;;;;;43.47;25.73;;;;;;;;;;4974474;28;20587;-65
2023/12/09 06:49:50;;;;;;;44.50;26.33;;;;;;;;;;4991201;28;20227;-66
2023/12/09 06:52:19;;;;;;;42.33;25.95;;;;;;;;;;4990171;28;20209;-65
2023/12/09 06:54:47;;;;;;;54.00;27.48;;;;;;;;;;4979499;28;20241;-65
2023/12/09 06:57:15;;;;;;;44.58;26.48;;;;;;;;;;5013300;28;20212;-65
2023/12/09 06:59:45;;;;;;;52.65;25.83;;;;;;;;;;5012843;28;20612;-66
2023/12/09 07:02:14;;;;;;;47.67;26.23;;;;;;;;;;5012163;28;20565;-66
2023/12/09 07:04:42;;;;;;;44.42;26.85;;;;;;;;;;5010892;28;20214;-66
2023/12/09 07:07:11;;;;;;;55.65;26.95;;;;;;;;;;4993689;28;20217;-66
2023/12/09 07:09:39;;;;;;;54.95;25.75;;;;;;;;;;4993588;28;20668;-65
2023/12/09 07:12:07;;;;;;;57.30;28.65;;;;;;;;;;4992944;28;20191;-65
2023/12/09 07:14:35;;;;;;;50.47;27.13;;;;;;;;;;4993749;28;20226;-66
2023/12/09 07:17:05;;;;;;;53.13;26.80;;;;;;;;;;5012596;28;20569;-66
2023/12/09 07:19:33;;;;;;;60.47;26.98;;;;;;;;;;5012969;28;20202;-65
2023/12/09 07:22:03;;;;;;;51.83;26.77;;;;;;;;;;4997492;28;20581;-66
2023/12/09 07:24:31;;;;;;;57.20;29.80;;;;;;;;;;5008264;28;20239;-66
2023/12/09 07:26:59;;;;;;;55.72;28.83;;;;;;;;;;4993686;28;20560;-66
2023/12/09 07:29:27;;;;;;;44.70;26.48;;;;;;;;;;4981840;28;20206;-66
2023/12/09 07:31:56;;;;;;;53.25;27.13;;;;;;;;;;4981611;28;20199;-65
2023/12/09 07:34:25;;;;;;;46.03;25.38;;;;;;;;;;4981231;28;20215;-66
2023/12/09 07:36:53;;;;;;;50.63;24.80;;;;;;;;;;4981690;28;20200;-66
2023/12/09 07:39:22;;;;;;;50.63;26.40;;;;;;;;;;4984104;28;20213;-65
2023/12/09 07:41:51;;;;;;;48.17;25.02;;;;;;;;;;4989211;28;20238;-66
2023/12/09 07:44:19;;;;;;;46.13;24.67;;;;;;;;;;5040137;28;20235;-65
2023/12/09 07:46:47;;;;;;;39.53;24.05;;;;;;;;;;5021794;28;20199;-66
2023/12/09 07:49:15;;;;;;;46.95;25.40;;;;;;;;;;4992764;28;20629;-66
2023/12/09 07:51:45;;;;;;;53.75;26.23;;;;;;;;;;4990528;28;20243;-66
2023/12/09 07:54:13;;;;;;;51.15;25.60;;;;;;;;;;4992215;28;20217;-65
2023/12/09 07:56:41;;;;;;;49.63;24.90;;;;;;;;;;4998728;28;20203;-66
2023/12/09 07:59:09;;;;;;;50.45;24.50;;;;;;;;;;4991269;28;20202;-65
2023/12/09 08:01:38;;;;;;;48.13;26.92;;;;;;;;;;5053511;28;20229;-66
2023/12/09 08:04:06;;;;;;;43.33;25.13;;;;;;;;;;4978365;28;20252;-66
2023/12/09 08:06:34;;;;;;;48.50;25.63;;;;;;;;;;4982867;28;20199;-66
2023/12/09 08:09:04;;;;;;;44.90;24.38;;;;;;;;;;4975814;28;20218;-65
2023/12/09 08:11:32;;;;;;;52.47;24.63;;;;;;;;;;4983769;28;20625;-66
2023/12/09 08:14:00;;;;;;;49.20;26.05;;;;;;;;;;5013873;28;20771;-65
2023/12/09 08:16:29;;;;;;;44.00;22.90;;;;;;;;;;4990669;28;20572;-66
2023/12/09 08:18:57;;;;;;;46.40;23.38;;;;;;;;;;5046376;28;20634;-66
2023/12/09 08:21:25;;;;;;;38.53;22.77;;;;;;;;;;4986605;28;20213;-65
2023/12/09 08:23:54;;;;;;;42.35;21.70;;;;;;;;;;4995126;28;20212;-65
2023/12/09 08:26:24;;;;;;;34.00;20.35;;;;;;;;;;5037757;28;20198;-66
2023/12/09 08:28:52;;;;;;;38.50;20.05;;;;;;;;;;5016380;28;20218;-66
2023/12/09 08:31:20;;;;;;;37.55;19.92;;;;;;;;;;5005771;28;20213;-65
2023/12/09 08:33:49;;;;;;;42.67;21.38;;;;;;;;;;5004515;28;20225;-65
2023/12/09 08:36:17;;;;;;;35.90;20.10;;;;;;;;;;5002195;28;20704;-65
2023/12/09 08:38:45;;;;;;;38.08;20.33;;;;;;;;;;4989591;28;20707;-66
2023/12/09 08:41:13;;;;;;;40.78;21.77;;;;;;;;;;4994412;28;20235;-66
2023/12/09 08:43:43;;;;;;;38.25;20.27;;;;;;;;;;4990845;28;20236;-66
2023/12/09 08:46:11;;;;;;;40.05;21.60;;;;;;;;;;5004921;28;20231;-66
2023/12/09 08:48:39;;;;;;;34.10;18.65;;;;;;;;;;5011908;28;20202;-65
2023/12/09 08:51:08;;;;;;;36.72;20.88;;;;;;;;;;5009413;28;20273;-65
2023/12/09 08:53:36;;;;;;;30.30;19.70;;;;;;;;;;4991210;28;20209;-65
2023/12/09 08:56:05;;;;;;;25.95;16.95;;;;;;;;;;5002333;28;20225;-65
2023/12/09 08:58:33;;;;;;;22.48;15.13;;;;;;;;;;4993280;28;20199;-65
2023/12/09 09:01:03;;;;;;;27.20;18.60;;;;;;;;;;4995116;28;20202;-66
2023/12/09 09:03:31;;;;;;;37.20;18.25;;;;;;;;;;5010909;28;20214;-66
2023/12/09 09:05:59;;;;;;;36.95;19.27;;;;;;;;;;4994211;28;20663;-65
2023/12/09 09:08:27;;;;;;;30.05;17.63;;;;;;;;;;5000287;28;20220;-65
2023/12/09 09:10:56;;;;;;;29.23;17.88;;;;;;;;;;5006434;28;20217;-65
2023/12/09 09:13:24;;;;;;;30.05;16.88;;;;;;;;;;4991142;28;20202;-65
2023/12/09 09:15:52;;;;;;;26.77;17.25;;;;;;;;;;4992719;28;20681;-66
2023/12/09 09:18:22;;;;;;;38.55;20.75;;;;;;;;;;4991781;28;20209;-65
2023/12/09 09:20:50;;;;;;;28.50;17.65;;;;;;;;;;4981607;28;20207;-65
2023/12/09 09:23:18;;;;;;;31.08;17.58;;;;;;;;;;4994630;28;20206;-64
2023/12/09 09:25:46;;;;;;;35.72;17.05;;;;;;;;;;4995852;28;20203;-64
2023/12/09 09:28:14;;;;;;;31.50;17.35;;;;;;;;;;4991939;28;20256;-64
2023/12/09 09:30:43;;;;;;;38.35;18.33;;;;;;;;;;5010749;28;20206;-63
2023/12/09 09:33:11;;;;;;;30.85;18.10;;;;;;;;;;4990392;28;20203;-65
2023/12/09 09:35:41;;;;;;;27.33;17.52;;;;;;;;;;4978359;28;20207;-64
2023/12/09 09:38:09;;;;;;;31.90;17.50;;;;;;;;;;4995263;28;20202;-64
2023/12/09 09:40:37;;;;;;;25.40;17.05;;;;;;;;;;4986484;28;20229;-64
2023/12/09 09:43:08;;;;;;;25.98;15.98;;;;;;;;;;5006720;28;20574;-64
2023/12/09 09:45:37;;;;;;;31.15;16.08;;;;;;;;;;4979963;28;20572;-64
2023/12/09 09:48:06;;;;;;;32.42;18.20;;;;;;;;;;5006934;28;20567;-64
2023/12/09 09:50:35;;;;;;;21.27;16.52;;;;;;;;;;5010357;28;20208;-64
2023/12/09 09:53:06;;;;;;;31.00;15.98;;;;;;;;;;5010624;28;20206;-64
2023/12/09 09:55:35;;;;;;;35.17;18.70;;;;;;;;;;5014204;28;20211;-64
2023/12/09 09:58:03;;;;;;;23.67;15.65;;;;;;;;;;5000777;28;20202;-64
2023/12/09 10:00:31;;;;;;;25.95;15.15;;;;;;;;;;5008167;28;20307;-64
2023/12/09 10:03:00;;;;;;;27.85;16.17;;;;;;;;;;4991748;28;20198;-64
2023/12/09 10:05:28;;;;;;;25.27;15.45;;;;;;;;;;4990114;28;20278;-65
2023/12/09 10:07:56;;;;;;;24.33;14.07;;;;;;;;;;4972393;28;20207;-64
2023/12/09 10:10:26;;;;;;;20.42;13.77;;;;;;;;;;4973034;28;20206;-64
2023/12/09 10:12:54;;;;;;;21.73;13.52;;;;;;;;;;5004448;28;20287;-64
2023/12/09 10:15:22;;;;;;;23.77;14.23;;;;;;;;;;5004430;28;20204;-64
2023/12/09 10:17:51;;;;;;;19.70;13.15;;;;;;;;;;5009634;28;20216;-65
2023/12/09 10:20:19;;;;;;;17.83;12.18;;;;;;;;;;5008927;28;20647;-64
2023/12/09 10:22:48;;;;;;;16.77;11.55;;;;;;;;;;5002018;28;20613;-64
2023/12/09 10:25:22;;;;;;;14.80;10.90;;;;;;;;;;4995783;28;20201;-65
2023/12/09 10:27:52;;;;;;;15.38;10.27;;;;;;;;;;5010251;28;20576;-65
2023/12/09 10:30:20;;;;;;;20.60;10.75;;;;;;;;;;4985428;28;20203;-64
2023/12/09 10:32:49;;;;;;;13.43;9.35;;;;;;;;;;4994577;28;20282;-64
2023/12/09 10:35:18;;;;;;;12.32;9.20;;;;;;;;;;4983051;28;20595;-64
2023/12/09 10:37:49;;;;;;;16.58;9.15;;;;;;;;;;5016380;28;20291;-64
2023/12/09 10:40:20;;;;;;;14.90;7.95;;;;;;;;;;4982246;28;20286;-64
2023/12/09 10:42:48;;;;;;;10.35;7.22;;;;;;;;;;4979006;28;20286;-64
2023/12/09 10:45:17;;;;;;;13.90;7.57;;;;;;;;;;4993859;28;20238;-64
2023/12/09 10:47:45;;;;;;;10.20;6.90;;;;;;;;;;4972019;28;20199;-64
2023/12/09 10:50:14;;;;;;;9.05;6.95;;;;;;;;;;4984257;28;20286;-64
2023/12/09 10:52:43;;;;;;;7.70;6.65;;;;;;;;;;4991751;28;20611;-65
2023/12/09 10:55:11;;;;;;;7.68;6.03;;;;;;;;;;4982360;28;20216;-66
2023/12/09 10:57:39;;;;;;;9.65;6.88;;;;;;;;;;4996603;28;20226;-64
2023/12/09 11:00:10;;;;;;;11.63;5.80;;;;;;;;;;4998997;28;20210;-65
2023/12/09 11:02:41;;;;;;;9.80;5.88;;;;;;;;;;4995543;28;20199;-65
2023/12/09 11:05:10;;;;;;;14.10;6.97;;;;;;;;;;4994259;28;20274;-66
2023/12/09 11:07:38;;;;;;;9.18;5.90;;;;;;;;;;4996178;28;20364;-64
2023/12/09 11:10:07;;;;;;;11.48;7.05;;;;;;;;;;5064125;28;20210;-64
2023/12/09 11:12:37;;;;;;;15.20;7.50;;;;;;;;;;4981634;28;20213;-66
2023/12/09 11:15:18;;;;;;;8.95;6.20;;;;;;;;;;4987061;28;20215;-70
2023/12/09 11:17:48;;;;;;;7.88;5.45;;;;;;;;;;4985711;28;20218;-69
2023/12/09 11:20:18;;;;;;;10.43;6.00;;;;;;;;;;4991201;28;20684;-69
2023/12/09 11:22:47;;;;;;;11.68;5.15;;;;;;;;;;5071999;28;20222;-62
2023/12/09 11:25:22;;;;;;;7.13;5.18;;;;;;;;;;5016051;28;20230;-62
2023/12/09 11:27:51;;;;;;;6.88;5.15;;;;;;;;;;5030271;28;20213;-63
2023/12/09 11:30:30;;;;;;;6.43;4.72;;;;;;;;;;5032593;28;20202;-63
2023/12/09 11:33:00;;;;;;;6.25;4.70;;;;;;;;;;5033059;28;20656;-62
2023/12/09 11:35:28;;;;;;;6.90;4.72;;;;;;;;;;5032672;28;20213;-63
2023/12/09 11:37:58;;;;;;;6.53;4.15;;;;;;;;;;5017733;28;20260;-64
2023/12/09 11:40:29;;;;;;;6.10;4.28;;;;;;;;;;5022717;28;20257;-64
2023/12/09 11:42:58;;;;;;;6.97;3.65;;;;;;;;;;5020512;28;20219;-63
2023/12/09 11:45:27;;;;;;;6.50;4.30;;;;;;;;;;5017206;28;20260;-65
2023/12/09 11:47:55;;;;;;;7.63;4.63;;;;;;;;;;5024147;28;20225;-63
2023/12/09 11:50:26;;;;;;;8.90;4.47;;;;;;;;;;5033663;28;20202;-64
2023/12/09 11:52:54;;;;;;;6.88;4.28;;;;;;;;;;5033609;28;20221;-66
2023/12/09 11:55:22;;;;;;;6.50;4.30;;;;;;;;;;5014385;28;20210;-63
2023/12/09 11:57:51;;;;;;;15.20;4.00;;;;;;;;;;5000889;28;20251;-64
2023/12/09 12:00:19;;;;;;;5.88;3.78;;;;;;;;;;4994590;28;20222;-64
2023/12/09 12:02:48;;;;;;;3.88;3.20;;;;;;;;;;5001916;28;20206;-64
2023/12/09 12:05:16;;;;;;;5.22;2.90;;;;;;;;;;5013507;28;20227;-65
2023/12/09 12:07:46;;;;;;;3.35;3.05;;;;;;;;;;4991102;28;20257;-64
2023/12/09 12:10:15;;;;;;;3.67;3.05;;;;;;;;;;5009954;28;20227;-66
2023/12/09 12:12:44;;;;;;;4.53;2.97;;;;;;;;;;5008182;28;20268;-64
2023/12/09 12:15:13;;;;;;;5.00;2.70;;;;;;;;;;5003200;28;20210;-67
2023/12/09 12:17:42;;;;;;;3.63;3.00;;;;;;;;;;4993042;28;20277;-68
2023/12/09 12:20:13;;;;;;;4.30;2.63;;;;;;;;;;5002870;28;20293;-64
2023/12/09 12:22:41;;;;;;;4.28;2.88;;;;;;;;;;5009410;28;20198;-65
2023/12/09 12:25:11;;;;;;;7.88;3.60;;;;;;;;;;5013976;28;20198;-66
2023/12/09 12:27:41;;;;;;;5.32;3.20;;;;;;;;;;5003143;28;20237;-64
2023/12/09 12:30:10;;;;;;;6.10;2.60;;;;;;;;;;5010864;28;20223;-64
2023/12/09 12:32:39;;;;;;;5.28;3.00;;;;;;;;;;5007762;28;20211;-64
2023/12/09 12:35:08;;;;;;;6.90;3.03;;;;;;;;;;5023309;28;20222;-63
2023/12/09 12:37:36;;;;;;;5.00;3.10;;;;;;;;;;5026632;28;20245;-65
2023/12/09 12:40:05;;;;;;;4.30;2.50;;;;;;;;;;5015605;28;20226;-66
2023/12/09 12:42:35;;;;;;;5.28;3.15;;;;;;;;;;5012454;28;20245;-64
2023/12/09 12:45:08;;;;;;;7.40;3.75;;;;;;;;;;5014385;28;20248;-64
2023/12/09 12:47:36;;;;;;;6.03;3.17;;;;;;;;;;5013204;28;20222;-63
2023/12/09 12:50:05;;;;;;;8.43;2.70;;;;;;;;;;5013110;28;20257;-64
2023/12/09 12:52:33;;;;;;;9.05;2.92;;;;;;;;;;5012872;28;20241;-64
2023/12/09 12:55:01;;;;;;;2.47;2.35;;;;;;;;;;5008475;28;20230;-64
2023/12/09 12:57:31;;;;;;;4.75;2.50;;;;;;;;;;5031943;28;20245;-64
2023/12/09 13:00:01;;;;;;;2.42;2.00;;;;;;;;;;5020796;28;20238;-64
2023/12/09 13:02:32;;;;;;;8.82;2.67;;;;;;;;;;5013065;28;20231;-65
2023/12/09 13:05:01;;;;;;;7.78;2.67;;;;;;;;;;5012496;28;20226;-64
2023/12/09 13:07:30;;;;;;;3.10;2.25;;;;;;;;;;5012919;28;20239;-66
2023/12/09 13:09:58;;;;;;;3.67;2.10;;;;;;;;;;5014557;28;20206;-68
2023/12/09 13:12:26;;;;;;;5.55;2.60;;;;;;;;;;5028691;28;20249;-64
2023/12/09 13:14:55;;;;;;;6.65;2.80;;;;;;;;;;5026311;28;20267;-65
2023/12/09 13:17:24;;;;;;;10.60;5.20;;;;;;;;;;5016234;28;20264;-65
2023/12/09 13:19:53;;;;;;;3.60;2.30;;;;;;;;;;5013874;28;20214;-63
2023/12/09 13:22:21;;;;;;;5.03;3.38;;;;;;;;;;5012019;28;20221;-65
2023/12/09 13:24:51;;;;;;;4.57;2.65;;;;;;;;;;5012011;28;20256;-65
2023/12/09 13:27:20;;;;;;;24.77;19.75;;;;;;;;;;5004044;28;20260;-66
2023/12/09 13:29:49;;;;;;;4.28;3.63;;;;;;;;;;4996483;28;20223;-65
2023/12/09 13:32:17;;;;;;;6.82;2.20;;;;;;;;;;4994319;28;20214;-65
2023/12/09 13:34:47;;;;;;;4.20;2.55;;;;;;;;;;5016280;28;20235;-68
2023/12/09 13:37:15;;;;;;;5.03;2.33;;;;;;;;;;5021929;28;20241;-66
2023/12/09 13:39:44;;;;;;;5.18;2.28;;;;;;;;;;5020111;28;20206;-68
2023/12/09 13:42:12;;;;;;;5.72;2.10;;;;;;;;;;5026607;28;20284;-66
2023/12/09 13:44:40;;;;;;;6.25;2.78;;;;;;;;;;5015306;28;20245;-64
2023/12/09 13:47:09;;;;;;;7.30;4.85;;;;;;;;;;5021615;28;20221;-64
2023/12/09 13:49:37;;;;;;;5.03;3.65;;;;;;;;;;5024293;28;20214;-64
2023/12/09 13:52:07;;;;;;;4.78;2.50;;;;;;;;;;5012757;28;20243;-66
2023/12/09 13:54:35;;;;;;;9.63;4.05;;;;;;;;;;5012570;28;20222;-66
2023/12/09 13:57:08;;;;;;;5.20;4.70;;;;;;;;;;5029235;28;20235;-64
2023/12/09 13:59:36;;;;;;;8.73;2.80;;;;;;;;;;5017809;28;20232;-66
2023/12/09 14:02:05;;;;;;;3.22;2.92;;;;;;;;;;5026493;28;20701;-66
2023/12/09 14:04:33;;;;;;;2.55;1.98;;;;;;;;;;5020120;28;20226;-66
2023/12/09 14:07:01;;;;;;;5.47;2.80;;;;;;;;;;5027489;28;20234;-66
2023/12/09 14:09:31;;;;;;;4.60;2.80;;;;;;;;;;5023646;28;20203;-66
2023/12/09 14:11:59;;;;;;;3.08;2.63;;;;;;;;;;4994976;28;20217;-64
2023/12/09 14:14:27;;;;;;;14.30;3.20;;;;;;;;;;5027854;28;20214;-64
2023/12/09 14:16:56;;;;;;;4.60;3.35;;;;;;;;;;5017005;28;20236;-63
2023/12/09 14:19:24;;;;;;;2.60;1.80;;;;;;;;;;5018915;28;20252;-65
2023/12/09 14:21:53;;;;;;;7.15;6.43;;;;;;;;;;5032848;28;20225;-63
2023/12/09 14:24:21;;;;;;;4.10;1.73;;;;;;;;;;5033072;28;20240;-64
2023/12/09 14:26:51;;;;;;;2.10;1.25;;;;;;;;;;5032230;28;20216;-64
2023/12/09 14:29:19;;;;;;;3.50;1.80;;;;;;;;;;5032029;28;20222;-65
2023/12/09 14:31:48;;;;;;;3.92;1.60;;;;;;;;;;5033032;28;20263;-63